Beauraing, Belgium
Current Conditions -  °F | °C
As of 8:55 PM on Monday 24 Nov 2014 (Local Time) from EBFS Reporting Station
Broken Clouds Broken Clouds  
Wind Chill: 35°   Ceiling: 22000
Heat Index: 39°   Visibility: 6mi
Dew Point: 36°   Wind: 6mph
Humidity: 87%   Direction: 60°ENE
Pressure: 30.3"   Gusts: NA
Location:  50.11°N, 4.96°E
Report Text: EBFS 241955Z 06005KT 9999 BKN220 04/02 Q1026 BLU BLU
Loading
Personal Weather Stations






























Interactive Weather Map New forecast layout! Learn more

10-Day Weather Forecast

Advertisements
Track Severe Weather on mobile